createdAt,value
2023-04-07T00:02:15.881Z,397.42
2023-04-07T00:04:44.224Z,265.02
2023-04-07T00:07:12.540Z,177.05
2023-04-07T00:09:40.751Z,159.82
2023-04-07T00:12:09.064Z,179.52
2023-04-07T00:14:37.166Z,131.13
2023-04-07T00:17:05.537Z,155.40
2023-04-07T00:19:33.686Z,151.13
2023-04-07T00:22:01.852Z,141.05
2023-04-07T00:24:34.154Z,125.97
2023-04-07T00:27:03.225Z,112.55
2023-04-07T00:29:31.555Z,119.82
2023-04-07T00:31:59.834Z,120.60
2023-04-07T00:34:27.953Z,103.05
2023-04-07T00:36:56.388Z,120.68
2023-04-07T00:39:24.500Z,140.45
2023-04-07T00:41:52.737Z,182.23
2023-04-07T00:44:20.950Z,248.07
2023-04-07T00:46:49.377Z,332.95
2023-04-07T00:49:17.642Z,306.83
2023-04-07T00:51:47.245Z,274.83
2023-04-07T00:54:16.153Z,268.42
2023-04-07T00:56:44.271Z,255.90
2023-04-07T00:59:12.721Z,218.55
2023-04-07T01:01:54.685Z,203.82
2023-04-07T01:07:11.993Z,145.15
2023-04-07T01:10:02.531Z,130.85
2023-04-07T01:13:09.457Z,132.15
2023-04-07T01:15:40.579Z,114.63
2023-04-07T01:18:17.385Z,108.40
2023-04-07T01:20:51.174Z,121.43
2023-04-07T01:23:53.245Z,138.50
2023-04-07T01:26:27.113Z,130.77
2023-04-07T01:29:23.158Z,141.75
2023-04-07T01:31:51.895Z,121.95
2023-04-07T01:34:21.522Z,124.45
2023-04-07T01:36:51.485Z,109.10
2023-04-07T01:39:20.314Z,117.93
2023-04-07T01:41:49.781Z,102.05
2023-04-07T01:44:19.723Z,106.53
2023-04-07T01:46:49.153Z,114.07
2023-04-07T01:49:18.465Z,130.52
2023-04-07T01:51:47.260Z,117.60
2023-04-07T01:54:15.788Z,109.82
2023-04-07T01:56:44.573Z,122.85
2023-04-07T01:59:13.330Z,100.78
2023-04-07T02:01:42.491Z,97.03
2023-04-07T02:04:20.099Z,88.03
2023-04-07T02:06:53.644Z,89.22
2023-04-07T02:09:32.799Z,77.65
2023-04-07T02:12:02.828Z,91.47
2023-04-07T02:14:36.593Z,100.32
2023-04-07T02:17:09.677Z,94.85
2023-04-07T02:19:38.579Z,87.20
2023-04-07T02:22:07.190Z,94.43
2023-04-07T02:24:35.407Z,63.05
2023-04-07T02:27:03.732Z,74.03
2023-04-07T02:29:31.972Z,71.40
2023-04-07T02:32:00.306Z,62.58
2023-04-07T02:34:30.603Z,64.38
2023-04-07T02:36:58.907Z,57.42
2023-04-07T02:39:28.548Z,49.10
2023-04-07T02:41:56.998Z,69.90
2023-04-07T02:44:25.229Z,72.10
2023-04-07T02:46:53.441Z,67.85
2023-04-07T02:49:21.723Z,71.90
2023-04-07T02:51:50.010Z,67.32
2023-04-07T02:54:18.217Z,77.10
2023-04-07T02:56:46.823Z,74.68
2023-04-07T02:59:15.070Z,78.38
2023-04-07T03:01:45.081Z,80.18
2023-04-07T03:04:13.646Z,65.15
2023-04-07T03:06:41.998Z,73.10
2023-04-07T03:09:15.056Z,73.10
2023-04-07T03:11:43.461Z,67.57
2023-04-07T03:14:11.956Z,75.75
2023-04-07T03:16:50.756Z,75.00
2023-04-07T03:19:19.323Z,58.45
2023-04-07T03:21:50.647Z,70.35
2023-04-07T03:24:18.830Z,79.75
2023-04-07T03:26:48.411Z,60.17
2023-04-07T03:29:36.614Z,67.35
2023-04-07T03:32:07.680Z,84.87
2023-04-07T03:34:36.000Z,75.25
2023-04-07T03:37:04.123Z,82.90
2023-04-07T03:39:36.728Z,76.13
2023-04-07T03:42:11.439Z,78.47
2023-04-07T03:44:40.157Z,60.47
2023-04-07T03:47:08.234Z,76.65
2023-04-07T03:49:37.880Z,80.05
2023-04-07T03:52:07.040Z,82.20
2023-04-07T03:54:35.802Z,90.32
2023-04-07T03:57:04.620Z,87.70
2023-04-07T03:59:36.751Z,90.50
2023-04-07T04:02:06.504Z,99.35
2023-04-07T04:04:34.987Z,88.20
2023-04-07T04:07:03.430Z,77.20
2023-04-07T04:09:42.550Z,77.78
2023-04-07T04:12:11.847Z,65.03
2023-04-07T04:14:48.016Z,64.68
2023-04-07T04:17:18.108Z,72.03
2023-04-07T04:19:48.101Z,64.85
2023-04-07T04:22:42.217Z,69.57
2023-04-07T04:25:10.768Z,80.47
2023-04-07T04:27:40.946Z,60.50
2023-04-07T04:30:18.561Z,75.63
2023-04-07T04:33:00.222Z,61.65
2023-04-07T04:35:38.234Z,59.05
2023-04-07T04:38:16.671Z,59.97
2023-04-07T04:40:51.865Z,72.28
2023-04-07T04:43:25.791Z,70.25
2023-04-07T04:45:54.535Z,55.00
2023-04-07T04:48:25.725Z,73.60
2023-04-07T04:50:53.849Z,57.28
2023-04-07T04:53:23.103Z,57.95
2023-04-07T04:55:58.624Z,53.67
2023-04-07T04:58:55.740Z,55.90
2023-04-07T05:01:53.359Z,60.78
2023-04-07T05:04:22.304Z,60.75
2023-04-07T05:06:59.758Z,71.82
2023-04-07T05:09:30.783Z,57.20
2023-04-07T05:11:59.014Z,57.30
2023-04-07T05:14:29.180Z,57.42
2023-04-07T05:17:06.016Z,54.15
2023-04-07T05:19:34.311Z,61.65
2023-04-07T05:22:09.240Z,66.57
2023-04-07T05:24:44.511Z,54.35
2023-04-07T05:27:13.020Z,73.78
2023-04-07T05:29:42.724Z,61.53
2023-04-07T05:32:21.096Z,67.57
2023-04-07T05:34:49.810Z,60.92
2023-04-07T05:37:18.526Z,69.65
2023-04-07T05:39:48.608Z,68.65
2023-04-07T05:42:16.962Z,57.88
2023-04-07T05:44:49.944Z,60.55
2023-04-07T05:47:21.582Z,56.00
2023-04-07T05:49:51.491Z,60.45
2023-04-07T05:52:20.347Z,56.17
2023-04-07T05:54:55.205Z,61.30
2023-04-07T05:59:55.236Z,59.17
2023-04-07T06:02:24.199Z,59.08
2023-04-07T06:04:53.313Z,62.10
2023-04-07T06:07:22.228Z,59.85
2023-04-07T06:09:50.441Z,67.88
2023-04-07T06:12:18.877Z,58.92
2023-04-07T06:14:53.117Z,63.15
2023-04-07T06:17:23.756Z,57.50
2023-04-07T06:19:52.135Z,63.10
2023-04-07T06:22:20.447Z,67.68
2023-04-07T06:24:48.638Z,66.60
2023-04-07T06:27:16.970Z,71.10
2023-04-07T06:29:48.912Z,72.53
2023-04-07T06:32:17.263Z,70.82
2023-04-07T06:34:45.336Z,98.60
2023-04-07T06:37:13.633Z,101.85
2023-04-07T06:39:41.911Z,74.45
2023-04-07T06:42:10.321Z,86.25
2023-04-07T06:44:49.424Z,74.38
2023-04-07T06:47:17.854Z,72.20
2023-04-07T06:49:46.205Z,89.40
2023-04-07T06:52:14.313Z,79.82
2023-04-07T06:54:42.657Z,75.45
2023-04-07T06:57:11.012Z,78.22
2023-04-07T06:59:42.084Z,92.97
2023-04-07T07:02:10.687Z,111.53
2023-04-07T07:04:38.983Z,123.85
2023-04-07T07:07:07.157Z,102.10
2023-04-07T07:09:35.495Z,92.60
2023-04-07T07:12:04.263Z,101.18
2023-04-07T07:14:32.642Z,93.07
2023-04-07T07:17:01.005Z,101.47
2023-04-07T07:19:29.189Z,89.22
2023-04-07T07:21:57.569Z,114.25
2023-04-07T07:24:25.816Z,115.40
2023-04-07T07:26:54.223Z,114.70
2023-04-07T07:42:42.055Z,81.30
2023-04-07T07:45:10.576Z,110.00
2023-04-07T07:47:38.694Z,138.45
2023-04-07T07:50:07.438Z,131.20
2023-04-07T07:52:35.815Z,130.80
2023-04-07T07:55:04.324Z,99.28
2023-04-07T07:57:32.703Z,87.15
2023-04-07T08:00:01.221Z,97.43
2023-04-07T08:02:29.556Z,98.25
2023-04-07T08:05:01.312Z,106.45
2023-04-07T08:07:29.763Z,115.15
2023-04-07T08:09:58.114Z,92.47
2023-04-07T08:12:26.554Z,105.03
2023-04-07T08:14:54.806Z,116.43
2023-04-07T08:17:24.369Z,100.72
2023-04-07T08:19:52.706Z,106.97
2023-04-07T08:22:21.110Z,112.25
2023-04-07T08:24:49.312Z,113.60
2023-04-07T08:27:17.525Z,106.43
2023-04-07T08:29:45.803Z,123.30
2023-04-07T08:32:14.148Z,104.38
2023-04-07T08:34:42.424Z,103.97
2023-04-07T08:37:10.689Z,92.05
2023-04-07T08:39:38.928Z,108.10
2023-04-07T08:42:09.548Z,84.80
2023-04-07T08:44:39.050Z,82.40
2023-04-07T08:47:09.846Z,78.93
2023-04-07T08:49:41.731Z,110.03
2023-04-07T08:52:11.888Z,94.57
2023-04-07T08:54:40.340Z,204.93
2023-04-07T08:57:09.403Z,110.00
2023-04-07T08:59:37.958Z,109.50
2023-04-07T09:02:06.402Z,83.22
2023-04-07T09:04:34.881Z,85.15
2023-04-07T09:07:03.270Z,82.20
2023-04-07T09:09:31.524Z,88.28
2023-04-07T09:11:59.808Z,225.25
2023-04-07T09:14:28.332Z,184.80
2023-04-07T09:16:56.642Z,140.88
2023-04-07T09:19:27.779Z,76.05
2023-04-07T09:21:56.006Z,67.80
2023-04-07T09:24:31.215Z,88.55
2023-04-07T09:27:17.395Z,76.05
2023-04-07T09:29:47.999Z,77.15
2023-04-07T09:32:38.270Z,63.70
2023-04-07T09:35:06.922Z,60.40
2023-04-07T09:37:35.053Z,77.85
2023-04-07T09:40:03.418Z,79.80
2023-04-07T09:42:32.888Z,73.70
2023-04-07T09:45:04.530Z,74.07
2023-04-07T09:47:33.644Z,80.55
2023-04-07T09:50:01.916Z,71.43
2023-04-07T09:52:53.100Z,73.78
2023-04-07T09:55:23.024Z,84.15
2023-04-07T09:57:55.040Z,75.13
2023-04-07T10:00:24.004Z,78.20
2023-04-07T10:02:53.407Z,73.85
2023-04-07T10:05:23.247Z,77.65
2023-04-07T10:07:52.049Z,60.78
2023-04-07T10:10:20.491Z,52.58
2023-04-07T10:12:50.612Z,62.95
2023-04-07T10:15:19.218Z,54.17
2023-04-07T10:17:48.561Z,69.45
2023-04-07T10:20:20.643Z,47.30
2023-04-07T10:25:21.560Z,59.80
2023-04-07T10:28:04.385Z,56.55
2023-04-07T10:30:34.153Z,59.28
2023-04-07T10:33:02.566Z,45.95
2023-04-07T10:36:18.556Z,74.47
2023-04-07T10:39:08.454Z,36.78
2023-04-07T10:41:37.078Z,62.22
2023-04-07T10:44:06.462Z,41.17
2023-04-07T10:46:46.661Z,47.92
2023-04-07T10:49:18.421Z,46.10
2023-04-07T10:52:13.119Z,53.65
2023-04-07T10:54:42.005Z,43.65
2023-04-07T10:57:12.212Z,41.60
2023-04-07T11:00:01.233Z,40.08
2023-04-07T11:02:34.750Z,56.55
2023-04-07T11:05:03.992Z,43.70
2023-04-07T11:07:48.629Z,121.95
2023-04-07T11:10:17.541Z,57.40
2023-04-07T11:12:58.188Z,58.72
2023-04-07T11:15:26.701Z,56.13
2023-04-07T11:18:20.431Z,49.08
2023-04-07T11:20:50.356Z,51.17
2023-04-07T11:23:20.358Z,42.38
2023-04-07T11:25:50.249Z,38.85
2023-04-07T11:28:19.423Z,41.78
2023-04-07T11:30:53.100Z,55.13
2023-04-07T11:33:27.239Z,58.88
2023-04-07T11:36:03.719Z,50.17
2023-04-07T11:38:38.134Z,41.28
2023-04-07T11:41:14.768Z,49.25
2023-04-07T11:43:43.343Z,34.90
2023-04-07T11:46:19.333Z,54.22
2023-04-07T11:48:47.568Z,38.10
2023-04-07T11:51:20.980Z,49.25
2023-04-07T11:53:54.701Z,46.85
2023-04-07T11:56:23.296Z,43.38
2023-04-07T11:58:55.907Z,51.70
2023-04-07T12:01:24.451Z,55.65
2023-04-07T12:04:03.463Z,47.53
2023-04-07T12:06:34.731Z,35.22
2023-04-07T12:09:03.805Z,39.95
2023-04-07T12:11:32.259Z,49.90
2023-04-07T12:14:00.843Z,37.13
2023-04-07T12:16:29.103Z,41.67
2023-04-07T12:18:57.446Z,42.40
2023-04-07T12:21:25.585Z,45.85
2023-04-07T12:23:53.864Z,49.90
2023-04-07T12:26:23.164Z,52.47
2023-04-07T12:28:51.945Z,41.90
2023-04-07T12:31:20.117Z,52.38
2023-04-07T12:33:48.612Z,50.38
2023-04-07T12:36:17.159Z,55.95
2023-04-07T12:38:45.395Z,54.45
2023-04-07T12:41:13.815Z,34.65
2023-04-07T12:43:42.110Z,36.55
2023-04-07T12:46:10.573Z,46.20
2023-04-07T12:48:39.007Z,32.67
2023-04-07T12:51:07.325Z,47.65
2023-04-07T12:53:35.610Z,58.88
2023-04-07T12:56:03.998Z,50.95
2023-04-07T12:58:32.478Z,71.60
2023-04-07T13:01:00.750Z,43.13
2023-04-07T13:03:29.512Z,41.17
2023-04-07T13:05:58.057Z,48.28
2023-04-07T13:08:26.556Z,47.33
2023-04-07T13:10:54.958Z,65.85
2023-04-07T13:13:24.440Z,48.00
2023-04-07T13:15:52.912Z,30.63
2023-04-07T13:18:21.078Z,48.67
2023-04-07T13:21:02.935Z,43.95
2023-04-07T13:23:43.240Z,51.53
2023-04-07T13:26:12.308Z,49.15
2023-04-07T13:28:40.538Z,37.13
2023-04-07T13:31:08.789Z,35.90
2023-04-07T13:33:37.076Z,40.92
2023-04-07T13:36:05.331Z,41.40
2023-04-07T13:38:33.537Z,43.42
2023-04-07T13:41:03.147Z,53.10
2023-04-07T13:43:33.241Z,45.22
2023-04-07T13:46:01.558Z,59.72
2023-04-07T13:48:29.725Z,42.75
2023-04-07T13:50:58.084Z,39.08
2023-04-07T13:53:26.289Z,54.03
2023-04-07T13:55:54.426Z,43.58
2023-04-07T13:58:22.568Z,41.45
2023-04-07T14:00:50.902Z,36.05
2023-04-07T14:03:19.203Z,37.97
2023-04-07T14:05:47.407Z,46.30
2023-04-07T14:08:15.772Z,54.70
2023-04-07T14:10:43.849Z,44.30
2023-04-07T14:13:12.091Z,46.22
2023-04-07T14:15:40.425Z,50.67
2023-04-07T14:18:09.595Z,39.35
2023-04-07T14:20:38.463Z,42.25
2023-04-07T14:23:06.709Z,50.40
2023-04-07T14:25:34.972Z,47.78
2023-04-07T14:28:03.385Z,51.50
2023-04-07T14:30:31.447Z,46.00
2023-04-07T14:32:59.880Z,45.92
2023-04-07T14:35:28.246Z,47.17
2023-04-07T14:37:56.560Z,51.15
2023-04-07T14:40:24.671Z,44.97
2023-04-07T14:43:07.048Z,41.83
2023-04-07T14:45:36.182Z,59.80
2023-04-07T14:48:04.637Z,49.67
2023-04-07T14:50:36.090Z,52.25
2023-04-07T14:53:04.589Z,41.00
2023-04-07T14:55:32.829Z,35.47
2023-04-07T14:58:01.250Z,44.97
2023-04-07T15:00:29.577Z,53.22
2023-04-07T15:02:58.085Z,50.03
2023-04-07T15:05:26.490Z,50.72
2023-04-07T15:07:54.942Z,43.47
2023-04-07T15:10:23.414Z,60.38
2023-04-07T15:12:51.716Z,34.35
2023-04-07T15:15:20.018Z,61.00
2023-04-07T15:17:48.502Z,42.75
2023-04-07T15:20:16.674Z,46.60
2023-04-07T15:22:45.033Z,59.55
2023-04-07T15:25:13.404Z,55.83
2023-04-07T15:27:41.778Z,55.17
2023-04-07T15:30:10.283Z,61.28
2023-04-07T15:32:38.593Z,69.18
2023-04-07T15:35:07.584Z,55.60
2023-04-07T15:37:35.973Z,52.70
2023-04-07T15:40:04.279Z,54.80
2023-04-07T15:42:32.619Z,80.32
2023-04-07T15:45:00.847Z,57.33
2023-04-07T15:47:29.150Z,46.92
2023-04-07T15:50:00.229Z,52.88
2023-04-07T15:52:28.809Z,57.08
2023-04-07T15:54:56.996Z,49.58
2023-04-07T15:57:25.284Z,52.88
2023-04-07T15:59:53.694Z,38.83
2023-04-07T16:02:21.976Z,46.25
2023-04-07T16:04:50.382Z,47.72
2023-04-07T16:07:18.873Z,65.38
2023-04-07T16:09:47.192Z,48.83
2023-04-07T16:12:15.521Z,57.25
2023-04-07T16:14:43.727Z,43.40
2023-04-07T16:17:13.180Z,42.95
2023-04-07T16:19:41.595Z,39.83
2023-04-07T16:22:09.670Z,47.22
2023-04-07T16:24:37.941Z,39.92
2023-04-07T16:27:06.156Z,35.97
2023-04-07T16:29:34.655Z,33.78
2023-04-07T16:32:02.844Z,33.90
2023-04-07T16:34:31.515Z,39.20
2023-04-07T16:36:59.914Z,37.75
2023-04-07T16:39:29.516Z,28.88
2023-04-07T16:42:01.243Z,35.42
2023-04-07T16:44:29.503Z,34.53
2023-04-07T16:46:57.707Z,39.67
2023-04-07T16:49:26.032Z,58.22
2023-04-07T16:51:54.295Z,48.55
2023-04-07T16:54:22.485Z,34.53
2023-04-07T16:56:50.866Z,40.35
2023-04-07T16:59:19.002Z,36.78
2023-04-07T17:01:47.340Z,44.45
2023-04-07T17:04:15.587Z,56.47
2023-04-07T17:06:44.037Z,41.97
2023-04-07T17:09:12.255Z,43.65
2023-04-07T17:11:42.316Z,47.30
2023-04-07T17:14:10.518Z,44.70
2023-04-07T17:16:38.595Z,33.05
2023-04-07T17:19:10.008Z,40.15
2023-04-07T17:21:38.550Z,34.95
2023-04-07T17:24:07.860Z,36.58
2023-04-07T17:26:36.400Z,40.85
2023-04-07T17:29:04.828Z,44.50
2023-04-07T17:31:33.413Z,38.20
2023-04-07T17:34:01.565Z,50.25
2023-04-07T17:36:31.128Z,60.03
2023-04-07T17:39:00.144Z,55.25
2023-04-07T17:41:28.714Z,39.00
2023-04-07T17:43:57.153Z,54.97
2023-04-07T17:46:25.470Z,60.03
2023-04-07T17:48:53.905Z,44.33
2023-04-07T17:51:22.178Z,54.70
2023-04-07T17:53:50.861Z,45.35
2023-04-07T17:56:19.465Z,52.72
2023-04-07T17:58:48.385Z,76.93
2023-04-07T18:01:16.860Z,56.90
2023-04-07T18:03:45.768Z,80.88
2023-04-07T18:06:17.983Z,83.10
2023-04-07T18:08:47.239Z,75.03
2023-04-07T18:11:16.129Z,101.97
2023-04-07T18:13:45.093Z,86.03
2023-04-07T18:16:13.819Z,99.55
2023-04-07T18:18:42.097Z,66.75
2023-04-07T18:21:10.478Z,40.97
2023-04-07T18:23:38.803Z,47.30
2023-04-07T18:26:07.022Z,69.05
2023-04-07T18:28:35.527Z,61.92
2023-04-07T18:31:05.918Z,93.45
2023-04-07T18:33:34.961Z,81.93
2023-04-07T18:36:08.166Z,67.45
2023-04-07T18:38:37.162Z,100.50
2023-04-07T18:41:07.352Z,93.28
2023-04-07T18:43:35.860Z,97.07
2023-04-07T18:46:04.229Z,115.43
2023-04-07T18:51:59.007Z,92.78
2023-04-07T18:54:27.179Z,120.18
2023-04-07T18:56:55.954Z,110.50
2023-04-07T18:59:24.236Z,87.45
2023-04-07T19:01:52.961Z,80.63
2023-04-07T19:04:21.241Z,98.80
2023-04-07T19:06:52.873Z,107.38
2023-04-07T19:09:21.818Z,108.22
2023-04-07T19:11:49.924Z,106.15
2023-04-07T19:14:18.224Z,88.05
2023-04-07T19:16:46.467Z,129.15
2023-04-07T19:19:14.821Z,146.20
2023-04-07T19:21:42.918Z,149.65
2023-04-07T19:24:11.140Z,142.13
2023-04-07T19:26:39.457Z,90.45
2023-04-07T19:29:07.610Z,76.05
2023-04-07T19:31:36.036Z,118.30
2023-04-07T19:34:04.315Z,112.35
2023-04-07T19:36:32.598Z,106.60
2023-04-07T19:39:00.900Z,87.90
2023-04-07T19:41:29.205Z,77.28
2023-04-07T19:43:57.452Z,96.35
2023-04-07T19:46:25.873Z,79.28
2023-04-07T19:48:54.248Z,119.72
2023-04-07T19:51:22.412Z,189.25
2023-04-07T19:53:51.154Z,125.75
2023-04-07T19:56:19.662Z,91.60
2023-04-07T19:58:48.077Z,100.70
2023-04-07T20:01:19.466Z,65.70
2023-04-07T20:03:47.983Z,53.70
2023-04-07T20:06:16.211Z,73.05
2023-04-07T20:08:44.883Z,82.97
2023-04-07T20:11:13.442Z,76.63
2023-04-07T20:13:42.468Z,117.47
2023-04-07T20:16:10.836Z,100.40
2023-04-07T20:18:39.154Z,67.70
2023-04-07T20:21:07.479Z,102.80
2023-04-07T20:23:35.837Z,102.35
2023-04-07T20:26:04.355Z,83.70
2023-04-07T20:28:32.741Z,78.82
2023-04-07T20:31:01.390Z,74.25
2023-04-07T20:33:29.724Z,56.58
2023-04-07T20:35:58.132Z,51.67
2023-04-07T20:38:26.520Z,70.65
2023-04-07T20:40:54.693Z,64.10
2023-04-07T20:43:23.077Z,69.15
2023-04-07T20:45:51.696Z,80.60
2023-04-07T20:51:18.105Z,85.07
2023-04-07T20:53:46.323Z,76.32
2023-04-07T20:56:14.459Z,68.43
2023-04-07T20:58:42.900Z,72.88
2023-04-07T21:01:11.110Z,67.35
2023-04-07T21:03:39.393Z,76.75
2023-04-07T21:06:07.810Z,79.25
2023-04-07T21:08:36.036Z,149.82
2023-04-07T21:11:04.255Z,105.53
2023-04-07T21:13:32.634Z,105.70
2023-04-07T21:16:00.868Z,103.60
2023-04-07T21:18:29.181Z,135.00
2023-04-07T21:21:00.320Z,167.43
2023-04-07T21:23:28.565Z,138.00
2023-04-07T21:26:01.230Z,147.63
2023-04-07T21:28:29.779Z,135.48
2023-04-07T21:30:59.505Z,131.98
2023-04-07T21:33:28.109Z,155.68
2023-04-07T21:35:56.330Z,132.65
2023-04-07T21:38:24.671Z,103.93
2023-04-07T21:40:53.027Z,120.32
2023-04-07T21:43:21.282Z,100.65
2023-04-07T21:45:49.702Z,92.40
2023-04-07T21:48:18.561Z,80.65
2023-04-07T21:50:46.816Z,75.95
2023-04-07T21:53:15.139Z,70.45
2023-04-07T21:55:43.377Z,96.72
2023-04-07T21:58:11.701Z,122.80
2023-04-07T22:00:40.060Z,81.55
2023-04-07T22:03:08.552Z,94.20
2023-04-07T22:05:36.900Z,62.72
2023-04-07T22:08:05.053Z,93.53
2023-04-07T22:10:33.330Z,79.90
2023-04-07T22:13:01.556Z,71.53
2023-04-07T22:15:29.897Z,87.95
2023-04-07T22:17:58.188Z,79.57
2023-04-07T22:20:26.613Z,90.32
2023-04-07T22:22:54.788Z,110.03
2023-04-07T22:25:23.372Z,102.18
2023-04-07T22:27:51.576Z,90.63
2023-04-07T22:30:20.630Z,96.30
2023-04-07T22:32:48.958Z,96.15
2023-04-07T22:35:17.529Z,120.47
2023-04-07T22:37:45.759Z,90.57
2023-04-07T22:40:14.352Z,52.03
2023-04-07T22:42:42.562Z,58.25
2023-04-07T22:45:11.199Z,88.45
2023-04-07T22:47:40.748Z,46.40
2023-04-07T22:50:09.595Z,38.13
2023-04-07T22:52:38.012Z,33.00
2023-04-07T22:55:06.880Z,51.47
2023-04-07T22:57:35.008Z,110.47
2023-04-07T23:00:04.148Z,86.50
2023-04-07T23:02:32.832Z,62.95
2023-04-07T23:05:01.080Z,57.80
2023-04-07T23:07:29.306Z,45.78
2023-04-07T23:09:57.785Z,52.10
2023-04-07T23:12:25.955Z,57.15
2023-04-07T23:14:54.186Z,45.92
2023-04-07T23:17:22.754Z,40.80
2023-04-07T23:19:50.877Z,84.55
2023-04-07T23:22:19.143Z,44.80
2023-04-07T23:24:47.353Z,49.92
2023-04-07T23:27:15.773Z,36.92
2023-04-07T23:29:44.025Z,29.42
2023-04-07T23:32:12.536Z,28.15
2023-04-07T23:34:41.513Z,36.13
2023-04-07T23:37:09.677Z,40.45
2023-04-07T23:39:38.005Z,44.58
2023-04-07T23:42:06.105Z,58.38
2023-04-07T23:44:34.405Z,92.22
2023-04-07T23:47:02.667Z,58.50
2023-04-07T23:49:31.363Z,123.90
2023-04-07T23:51:59.607Z,416.58
2023-04-07T23:54:27.944Z,138.13
2023-04-07T23:56:56.154Z,435.83
2023-04-07T23:59:24.309Z,473.20
